KHGR/HGR METAR and TAF weather

Enter ICAO airport designator
Station Type Date Time Source
KHGR METAR 2019/08/22 14:53 UTC NOAA

KHGR 221453Z 29010KT 10SM FEW045 29/18 A2998 RMK AO2 SLP154 T02890183 51005


Station Type Date Time Source
KHGR Decoded METAR 2019/08/22 14:53 UTC NOAA

Station name not available
Aug 22, 2019 - 10:53 AM EDT / 2019.08.22 1453 UTC
Wind: from the WNW (290 degrees) at 12 MPH (10 KT):0
Visibility: 10 mile(s):0
Sky conditions: mostly clear
Temperature: 84.0 F (28.9 C)
Dew Point: 64.9 F (18.3 C)
Relative Humidity: 52%
Pressure (altimeter): 29.98 in. Hg (1015 hPa)
Pressure tendency: 0.01 inches (0.5 hPa) higher than three hours ago
ob: KHGR 221453Z 29010KT 10SM FEW045 29/18 A2998 RMK AO2 SLP154 T02890183 51005
cycle: 15

Station Type Date Time Source
KHGR TAF UTC NOAA

Error!

Example: see airport list